createdAt,value
2023-05-04T11:07:12.575Z,62.2800
2023-05-04T11:08:12.908Z,61.8301
2023-05-04T11:09:12.876Z,60.9343
2023-05-04T11:10:13.132Z,60.5595
2023-05-04T11:11:13.468Z,61.1079
2023-05-04T11:12:13.652Z,60.9318
2023-05-04T11:13:14.011Z,60.6347
2023-05-04T11:14:14.223Z,60.6007
2023-05-04T11:15:15.034Z,60.0102
2023-05-04T11:16:15.556Z,59.2115
2023-05-04T11:17:28.310Z,59.1398
2023-05-04T11:18:19.733Z,59.0532
2023-05-04T11:19:20.026Z,59.1117
2023-05-04T11:20:20.243Z,59.5723
2023-05-04T11:21:20.323Z,59.6041
2023-05-04T11:22:20.604Z,59.9658
2023-05-04T11:23:20.573Z,59.7205
2023-05-04T11:24:20.772Z,60.0857
2023-05-04T11:25:21.964Z,59.4839
2023-05-04T11:26:22.589Z,57.8006
2023-05-04T11:27:22.869Z,56.5813
2023-05-04T11:28:24.073Z,57.2081
2023-05-04T11:29:24.464Z,57.7809
2023-05-04T11:30:24.830Z,55.1848
2023-05-04T11:31:25.750Z,55.7220
2023-05-04T11:32:25.928Z,54.7936
2023-05-04T11:33:26.419Z,54.0580
2023-05-04T11:34:26.581Z,54.9929
2023-05-04T11:35:26.691Z,55.1065
2023-05-04T11:36:27.291Z,53.5642
2023-05-04T11:37:27.430Z,53.5499
2023-05-04T11:38:27.588Z,53.0654
2023-05-04T11:39:27.890Z,50.8974
2023-05-04T11:40:28.797Z,51.6594
2023-05-04T11:41:29.052Z,51.1416
2023-05-04T11:42:29.600Z,50.9776
2023-05-04T11:43:29.690Z,51.0962
2023-05-04T11:44:29.800Z,50.7171
2023-05-04T11:45:29.946Z,49.4931
2023-05-04T11:46:30.208Z,48.1319
2023-05-04T11:47:30.825Z,48.7882
2023-05-04T11:48:31.229Z,48.8999
2023-05-04T11:49:31.448Z,49.6272
2023-05-04T11:50:31.830Z,50.9980
2023-05-04T11:51:31.924Z,51.8720
2023-05-04T11:52:32.184Z,50.6665
2023-05-04T11:53:32.944Z,49.7335
2023-05-04T11:54:32.943Z,47.9753
2023-05-04T11:55:33.613Z,47.9891
2023-05-04T11:56:33.737Z,46.4430
2023-05-04T11:57:33.891Z,46.4675
2023-05-04T11:58:34.199Z,46.9987
2023-05-04T11:59:34.224Z,46.6871
2023-05-04T12:00:34.667Z,45.4510
2023-05-04T12:01:35.550Z,44.5553
2023-05-04T12:02:35.739Z,43.7654
2023-05-04T12:03:53.175Z,42.2792
2023-05-04T12:04:41.025Z,43.6621
2023-05-04T12:05:41.362Z,42.6441
2023-05-04T12:06:41.696Z,44.0133
2023-05-04T12:07:42.080Z,46.2120
2023-05-04T12:08:42.420Z,46.7007
2023-05-04T12:09:42.810Z,47.7445
2023-05-04T12:10:43.177Z,45.5407
2023-05-04T12:11:43.426Z,44.3911
2023-05-04T12:12:44.616Z,43.2249
2023-05-04T12:13:44.925Z,43.2175
2023-05-04T12:14:45.239Z,43.6183
2023-05-04T12:15:45.351Z,42.7707
2023-05-04T12:16:45.879Z,42.9417
2023-05-04T12:17:46.316Z,43.4319
2023-05-04T12:18:46.415Z,44.2579
2023-05-04T12:19:46.705Z,44.1448
2023-05-04T12:20:47.061Z,43.0167
2023-05-04T12:21:48.278Z,42.1816
2023-05-04T12:22:48.563Z,41.5567
2023-05-04T12:23:48.909Z,42.4854
2023-05-04T12:24:48.947Z,42.6479
2023-05-04T12:25:58.020Z,42.4560
2023-05-04T12:26:53.498Z,40.9824
2023-05-04T12:27:53.670Z,41.0973
2023-05-04T12:28:53.922Z,40.3068
2023-05-04T12:32:54.935Z,41.2850
2023-05-04T12:33:55.261Z,42.0178
2023-05-04T12:34:55.292Z,41.0157
2023-05-04T12:35:55.612Z,41.2123
2023-05-04T12:36:55.773Z,40.8908
2023-05-04T12:37:55.987Z,39.8317
2023-05-04T12:38:56.269Z,38.7422
2023-05-04T12:39:56.451Z,39.7858
2023-05-04T12:40:56.521Z,39.6164
2023-05-04T12:41:56.849Z,38.9106
2023-05-04T12:42:56.976Z,38.8587
2023-05-04T12:43:57.047Z,39.2195
2023-05-04T12:44:57.329Z,37.4306
2023-05-04T12:45:57.916Z,37.5323
2023-05-04T12:46:58.764Z,36.6067
2023-05-04T12:47:59.007Z,39.9889
2023-05-04T12:48:59.447Z,40.3327
2023-05-04T12:50:00.059Z,39.7072
2023-05-04T12:51:00.310Z,36.7850
2023-05-04T12:52:00.336Z,37.3990
2023-05-04T12:53:00.608Z,38.2173
2023-05-04T12:54:00.851Z,37.3699
2023-05-04T12:55:01.172Z,37.8462
2023-05-04T12:56:01.805Z,38.8564
2023-05-04T12:57:03.014Z,39.4151
2023-05-04T12:58:03.170Z,37.8328
2023-05-04T12:59:03.661Z,37.9297
2023-05-04T13:00:03.863Z,36.6731
2023-05-04T13:01:04.678Z,36.4221
2023-05-04T13:02:05.257Z,37.5455
2023-05-04T13:03:06.192Z,36.7322
2023-05-04T13:04:06.802Z,36.6404
2023-05-04T13:05:07.191Z,37.1754
2023-05-04T13:06:08.163Z,36.5130
2023-05-04T13:07:08.582Z,36.7448
2023-05-04T13:08:08.820Z,37.8912
2023-05-04T13:09:09.176Z,37.3548
2023-05-04T13:10:09.737Z,35.1131
2023-05-04T13:11:09.916Z,34.8147
2023-05-04T13:12:10.662Z,35.3269
2023-05-04T13:13:11.114Z,35.9050
2023-05-04T13:14:11.418Z,36.6378
2023-05-04T13:15:11.667Z,37.4053
2023-05-04T13:16:11.999Z,37.2092
2023-05-04T13:17:12.745Z,36.7647
2023-05-04T13:18:13.353Z,36.3317
2023-05-04T13:19:13.633Z,36.5315
2023-05-04T13:20:14.034Z,36.3995
2023-05-04T13:21:14.626Z,36.7744
2023-05-04T13:22:14.849Z,37.0359
2023-05-04T13:23:15.369Z,37.6651
2023-05-04T13:24:15.660Z,36.8959
2023-05-04T13:25:16.499Z,36.2176
2023-05-04T13:26:16.857Z,36.6740
2023-05-04T13:27:16.985Z,36.1184
2023-05-04T13:28:17.392Z,35.2171
2023-05-04T13:29:17.746Z,35.1705
2023-05-04T13:30:18.097Z,35.7474
2023-05-04T13:31:18.525Z,36.7261
2023-05-04T13:32:19.265Z,38.3301
2023-05-04T13:33:28.808Z,38.2557
2023-05-04T13:34:20.287Z,35.4881
2023-05-04T13:35:20.972Z,34.8391
2023-05-04T13:36:22.150Z,34.3181
2023-05-04T13:37:22.414Z,34.2765
2023-05-04T13:38:22.795Z,35.6593
2023-05-04T13:39:23.027Z,34.5200
2023-05-04T13:40:23.306Z,35.2686
2023-05-04T13:41:23.565Z,34.3008
2023-05-04T13:42:23.654Z,35.1028
2023-05-04T13:43:24.779Z,36.0791
2023-05-04T13:44:25.089Z,35.8618
2023-05-04T13:45:25.899Z,36.6445
2023-05-04T13:46:26.218Z,35.7385
2023-05-04T13:47:26.705Z,35.7373
2023-05-04T13:48:27.526Z,35.3562
2023-05-04T13:49:27.838Z,35.6149
2023-05-04T13:50:27.914Z,35.4191
2023-05-04T13:51:28.228Z,35.6879
2023-05-04T13:52:28.588Z,35.9948
2023-05-04T13:53:28.733Z,36.0713
2023-05-04T13:54:30.011Z,35.2994
2023-05-04T13:55:30.683Z,35.4929
2023-05-04T13:56:30.778Z,34.9135
2023-05-04T13:57:31.033Z,35.4193
2023-05-04T13:58:31.307Z,34.6909
2023-05-04T13:59:31.421Z,35.4122
2023-05-04T14:00:31.992Z,35.2280
2023-05-04T14:01:32.275Z,34.8318
2023-05-04T14:02:33.386Z,33.8281
2023-05-04T14:03:34.201Z,34.6884
2023-05-04T14:04:34.970Z,35.2109
2023-05-04T14:05:34.850Z,34.8513
2023-05-04T14:06:35.051Z,34.6443
2023-05-04T14:07:35.094Z,35.0094
2023-05-04T14:08:35.418Z,35.9389
2023-05-04T14:09:35.735Z,35.3295
2023-05-04T14:10:37.257Z,34.9550
2023-05-04T14:11:36.623Z,34.6421
2023-05-04T14:12:36.811Z,35.7331
2023-05-04T14:13:37.284Z,34.6726
2023-05-04T14:14:37.582Z,34.8708
2023-05-04T14:15:38.082Z,34.5972
2023-05-04T14:16:39.305Z,34.4923
2023-05-04T14:17:39.897Z,35.7008
2023-05-04T14:18:40.381Z,34.7058
2023-05-04T14:19:40.695Z,34.2384
2023-05-04T14:20:41.206Z,33.7819
2023-05-04T14:21:41.351Z,34.2735
2023-05-04T14:22:41.527Z,34.7221
2023-05-04T14:23:41.678Z,34.4013
2023-05-04T14:24:42.044Z,34.3261
2023-05-04T14:25:42.856Z,35.6007
2023-05-04T14:26:43.158Z,36.7323
2023-05-04T14:27:43.478Z,34.8639
2023-05-04T14:28:43.976Z,33.7885
2023-05-04T14:29:46.421Z,34.9479
2023-05-04T14:30:45.358Z,36.9981
2023-05-04T14:31:45.675Z,34.0503
2023-05-04T14:32:46.247Z,34.6113
2023-05-04T14:33:46.652Z,34.7745
2023-05-04T14:34:46.751Z,34.2878
2023-05-04T14:35:48.293Z,34.6826
2023-05-04T14:36:47.412Z,34.9981
2023-05-04T14:37:47.724Z,35.3489
2023-05-04T14:38:48.036Z,34.8598
2023-05-04T14:39:48.208Z,33.7915
2023-05-04T14:40:49.810Z,34.0483
2023-05-04T14:41:50.434Z,34.1289
2023-05-04T14:42:50.571Z,34.7164
2023-05-04T14:43:51.102Z,35.0689
2023-05-04T14:44:51.349Z,34.5031
2023-05-04T14:45:51.642Z,34.8746
2023-05-04T14:46:52.040Z,35.5323
2023-05-04T14:47:52.448Z,36.2855
2023-05-04T14:48:52.871Z,35.7416
2023-05-04T14:49:53.988Z,36.0760
2023-05-04T14:50:54.479Z,36.4436
2023-05-04T14:51:54.966Z,35.8814
2023-05-04T14:52:55.416Z,35.2933
2023-05-04T14:53:55.647Z,35.5778
2023-05-04T14:54:55.927Z,36.6219
2023-05-04T14:55:56.259Z,35.0909
2023-05-04T14:56:57.603Z,35.4596
2023-05-04T14:57:58.070Z,35.4350
2023-05-04T14:58:58.491Z,35.5003
2023-05-04T14:59:58.625Z,36.9483
2023-05-04T15:00:59.634Z,36.6144
2023-05-04T15:02:00.154Z,36.1998
2023-05-04T15:03:01.040Z,35.4246
2023-05-04T15:04:01.108Z,35.0389
2023-05-04T15:05:01.246Z,34.6560
2023-05-04T15:06:01.588Z,35.2525
2023-05-04T15:07:01.769Z,34.7763
2023-05-04T15:08:02.441Z,35.8996
2023-05-04T15:09:02.874Z,37.6834
2023-05-04T15:10:03.160Z,37.7740
2023-05-04T15:11:04.198Z,38.6074
2023-05-04T15:12:04.742Z,36.2065
2023-05-04T15:13:04.926Z,35.3665
2023-05-04T15:14:05.386Z,34.9134
2023-05-04T15:15:05.606Z,35.5066
2023-05-04T15:16:06.015Z,35.4371
2023-05-04T15:17:06.747Z,35.4322
2023-05-04T15:18:07.151Z,36.1676
2023-05-04T15:19:07.633Z,36.3540
2023-05-04T15:20:08.739Z,36.0376
2023-05-04T15:21:09.373Z,35.6334
2023-05-04T15:22:09.837Z,35.9915
2023-05-04T15:23:10.286Z,37.0340
2023-05-04T15:24:10.415Z,36.1356
2023-05-04T15:25:11.082Z,36.4385
2023-05-04T15:26:11.245Z,36.5317
2023-05-04T15:27:11.652Z,37.4241
2023-05-04T15:28:12.252Z,37.5753
2023-05-04T15:29:13.513Z,36.7265
2023-05-04T15:30:13.891Z,36.0941
2023-05-04T15:31:14.531Z,36.1045
2023-05-04T15:32:14.948Z,38.1273
2023-05-04T15:33:15.729Z,36.3679
2023-05-04T15:34:20.044Z,35.8507
2023-05-04T15:35:20.518Z,37.8327
2023-05-04T15:36:20.864Z,39.9785
2023-05-04T15:37:21.372Z,39.4432
2023-05-04T15:38:21.927Z,40.2397
2023-05-04T15:39:22.161Z,38.8957
2023-05-04T15:40:22.760Z,39.2689
2023-05-04T15:41:23.726Z,38.2478
2023-05-04T15:42:24.096Z,38.6045
2023-05-04T15:43:24.493Z,39.5280
2023-05-04T15:44:24.904Z,38.6212
2023-05-04T15:45:25.293Z,37.3243
2023-05-04T15:46:25.542Z,36.9585
2023-05-04T15:47:26.514Z,39.1332
2023-05-04T15:48:27.041Z,40.4959
2023-05-04T15:49:27.301Z,38.6282
2023-05-04T15:50:28.232Z,36.8548
2023-05-04T15:51:28.673Z,36.2347
2023-05-04T15:52:28.953Z,36.4540
2023-05-04T15:53:29.457Z,37.4493
2023-05-04T15:54:30.063Z,38.3923
2023-05-04T15:55:31.064Z,38.2386
2023-05-04T15:56:31.826Z,37.9366
2023-05-04T15:57:32.295Z,36.6445
2023-05-04T15:58:32.506Z,36.3807
2023-05-04T15:59:33.169Z,39.9718
2023-05-04T16:00:33.765Z,41.1702
2023-05-04T16:01:34.192Z,38.5475
2023-05-04T16:02:35.016Z,37.6666
2023-05-04T16:03:35.907Z,38.6104
2023-05-04T16:04:36.608Z,38.8680
2023-05-04T16:05:37.202Z,38.7353
2023-05-04T16:06:37.458Z,37.8780
2023-05-04T16:07:37.698Z,37.1149
2023-05-04T16:08:38.115Z,37.4924
2023-05-04T16:09:39.391Z,38.0307
2023-05-04T16:11:39.226Z,38.8212
2023-05-04T16:12:39.976Z,38.4040
2023-05-04T16:13:40.961Z,38.5855
2023-05-04T16:14:41.141Z,40.1922
2023-05-04T16:15:41.765Z,39.6920
2023-05-04T16:16:42.350Z,40.1736
2023-05-04T16:17:42.969Z,43.6500
2023-05-04T16:18:43.513Z,39.8221
2023-05-04T16:19:44.595Z,40.3792
2023-05-04T16:20:45.794Z,41.8141
2023-05-04T16:21:46.924Z,41.0422
2023-05-04T16:22:47.461Z,38.6850
2023-05-04T16:23:47.776Z,38.9652
2023-05-04T16:24:48.445Z,41.1281
2023-05-04T16:25:48.855Z,40.6459
2023-05-04T16:26:50.014Z,39.9204
2023-05-04T16:27:50.577Z,41.7627
2023-05-04T16:28:50.936Z,41.3348
2023-05-04T16:29:51.434Z,42.2865
2023-05-04T16:30:52.520Z,42.0238
2023-05-04T16:31:53.164Z,40.7548
2023-05-04T16:32:53.293Z,39.5167
2023-05-04T16:33:54.094Z,37.1777
2023-05-04T16:34:54.253Z,36.1782
2023-05-04T16:35:54.929Z,35.8859
2023-05-04T16:36:55.188Z,35.6716
2023-05-04T16:37:55.382Z,36.6027
2023-05-04T16:38:56.093Z,38.2681
2023-05-04T16:39:56.330Z,39.9522
2023-05-04T16:40:56.788Z,39.7261
2023-05-04T16:41:58.100Z,40.3154
2023-05-04T16:42:59.376Z,39.7037
2023-05-04T16:44:00.141Z,39.2092
2023-05-04T16:45:00.619Z,38.1545
2023-05-04T16:46:01.044Z,38.6622
2023-05-04T16:47:01.712Z,39.7656
2023-05-04T16:48:02.268Z,39.4567
2023-05-04T16:49:02.996Z,38.2203
2023-05-04T16:50:03.400Z,36.6434
2023-05-04T16:51:04.008Z,36.7981
2023-05-04T16:52:04.669Z,36.4236
2023-05-04T16:53:05.541Z,36.9614
2023-05-04T16:54:05.770Z,36.4491
2023-05-04T16:55:08.484Z,36.5514
2023-05-04T16:56:07.182Z,36.1361
2023-05-04T16:57:07.755Z,36.5708
2023-05-04T16:58:07.745Z,37.4084
2023-05-04T16:59:08.418Z,37.1818
2023-05-04T17:00:08.969Z,36.5877
2023-05-04T17:01:11.116Z,37.3167
2023-05-04T17:02:10.354Z,38.1035
2023-05-04T17:03:10.271Z,38.1471
2023-05-04T17:04:10.513Z,38.2936
2023-05-04T17:05:10.937Z,37.6782
2023-05-04T17:06:11.928Z,38.0930
2023-05-04T17:07:12.863Z,37.8633
2023-05-04T17:08:13.207Z,38.3561
2023-05-04T17:09:14.881Z,38.5446
2023-05-04T17:10:14.060Z,38.5661
2023-05-04T17:11:15.119Z,39.0869
2023-05-04T17:12:16.238Z,38.0208
2023-05-04T17:13:16.796Z,38.0633
2023-05-04T17:14:17.912Z,38.0534
2023-05-04T17:15:18.598Z,37.2218
2023-05-04T17:16:18.679Z,36.7817
2023-05-04T17:17:18.802Z,37.7481
2023-05-04T17:18:19.590Z,37.6687
2023-05-04T17:19:20.241Z,38.5201
2023-05-04T17:20:21.368Z,39.0634
2023-05-04T17:21:22.300Z,39.1892
2023-05-04T17:22:22.869Z,37.7814
2023-05-04T17:23:23.754Z,37.6708
2023-05-04T17:24:24.461Z,38.9727
2023-05-04T17:25:25.181Z,39.1611
2023-05-04T17:26:25.793Z,39.2684
2023-05-04T17:27:26.223Z,39.4561
2023-05-04T17:28:27.199Z,39.0847
2023-05-04T17:29:27.654Z,39.2090
2023-05-04T17:30:28.213Z,39.3858
2023-05-04T17:31:29.488Z,39.4176
2023-05-04T17:32:30.329Z,40.5601
2023-05-04T17:33:30.645Z,41.4788
2023-05-04T17:34:31.176Z,39.5260
2023-05-04T17:35:31.572Z,39.0009
2023-05-04T17:36:32.535Z,38.5678
2023-05-04T17:37:33.361Z,39.1847
2023-05-04T17:38:34.393Z,39.9984
2023-05-04T17:39:35.019Z,39.9730
2023-05-04T17:40:35.720Z,39.4693
2023-05-04T17:41:36.850Z,40.1865
2023-05-04T17:42:37.744Z,40.0073
2023-05-04T17:43:38.286Z,39.9521
2023-05-04T17:44:38.926Z,39.8125
2023-05-04T17:45:39.448Z,38.9650
2023-05-04T17:46:40.892Z,39.2715
2023-05-04T17:48:41.340Z,40.4441
2023-05-04T17:49:42.011Z,40.5274
2023-05-04T17:50:42.436Z,41.4213
2023-05-04T17:51:43.491Z,42.0320
2023-05-04T17:52:43.877Z,42.1593
2023-05-04T17:53:45.826Z,42.8379
2023-05-04T17:55:45.308Z,44.5913
2023-05-04T17:56:45.839Z,45.6730
2023-05-04T17:57:46.504Z,46.5627
2023-05-04T17:58:46.797Z,45.7151
2023-05-04T17:59:47.392Z,47.0745
2023-05-04T18:00:48.673Z,46.8204
2023-05-04T18:01:48.223Z,45.9862
2023-05-04T18:02:49.314Z,47.9013
2023-05-04T18:03:49.520Z,47.9184
2023-05-04T18:04:50.316Z,48.5793
2023-05-04T18:05:51.007Z,49.9978
2023-05-04T18:06:51.404Z,48.7614
2023-05-04T18:07:51.866Z,49.2065
2023-05-04T18:08:51.946Z,49.6868
2023-05-04T18:09:52.542Z,49.2701
2023-05-04T18:10:52.840Z,49.5395
2023-05-04T18:11:53.901Z,49.7680
2023-05-04T18:13:54.605Z,50.7295
2023-05-04T18:14:55.363Z,51.4783
2023-05-04T18:15:56.089Z,50.6149
2023-05-04T18:16:57.108Z,50.4511
2023-05-04T18:17:57.876Z,51.3560
2023-05-04T18:19:00.446Z,51.3601
2023-05-04T18:20:01.314Z,51.6589
2023-05-04T18:21:01.684Z,51.1651
2023-05-04T18:22:02.928Z,50.7797
2023-05-04T18:23:03.585Z,50.9864
2023-05-04T18:24:04.164Z,49.9645
2023-05-04T18:25:04.630Z,52.3988
2023-05-04T18:26:05.144Z,52.5115
2023-05-04T18:27:06.249Z,54.3517
2023-05-04T18:28:06.978Z,53.5761
2023-05-04T18:29:17.824Z,53.3249
2023-05-04T18:30:08.476Z,54.3843
2023-05-04T18:31:08.390Z,54.4659
2023-05-04T18:32:08.984Z,55.1586
2023-05-04T18:33:09.948Z,54.7990
2023-05-04T18:34:10.911Z,55.2788
2023-05-04T18:35:11.119Z,56.1123
2023-05-04T18:36:11.149Z,56.2804
2023-05-04T18:37:11.537Z,56.9517
2023-05-04T18:38:12.518Z,57.1241
2023-05-04T18:39:13.248Z,57.4032
2023-05-04T18:40:14.417Z,57.8553
2023-05-04T18:41:15.609Z,56.8987
2023-05-04T18:42:16.671Z,57.4877
2023-05-04T18:43:17.529Z,57.2131
2023-05-04T18:44:18.133Z,57.5964
2023-05-04T18:45:19.029Z,58.1154
2023-05-04T18:46:19.889Z,57.9862
2023-05-04T18:47:20.878Z,58.5393
2023-05-04T18:48:21.138Z,58.2781
2023-05-04T18:49:21.455Z,58.2111
2023-05-04T18:50:21.741Z,60.2486
2023-05-04T18:51:22.210Z,59.2588
2023-05-04T18:52:22.703Z,59.3760
2023-05-04T18:53:23.424Z,59.2688
2023-05-04T18:54:24.063Z,58.8175
2023-05-04T18:55:24.614Z,58.8662
2023-05-04T18:56:25.081Z,58.6754
2023-05-04T18:57:26.206Z,58.8493
2023-05-04T18:58:26.165Z,60.2177
2023-05-04T18:59:26.824Z,57.5183
2023-05-04T19:00:28.308Z,56.7054
2023-05-04T19:01:29.453Z,56.3698
2023-05-04T19:02:29.490Z,55.8239
2023-05-04T19:03:30.752Z,56.9794
2023-05-04T19:04:31.689Z,56.8447
2023-05-04T19:05:32.220Z,55.4959
2023-05-04T19:06:32.693Z,55.1719
2023-05-04T19:07:33.562Z,55.0541
2023-05-04T19:08:34.717Z,54.6808
2023-05-04T19:09:35.246Z,54.9886
2023-05-04T19:10:35.770Z,55.1227
2023-05-04T19:11:36.002Z,54.8163
2023-05-04T19:12:36.777Z,54.7065
2023-05-04T19:13:37.641Z,54.8412
2023-05-04T19:14:38.909Z,55.1034
2023-05-04T19:15:39.485Z,54.9862
2023-05-04T19:16:40.288Z,55.0159
2023-05-04T19:17:40.668Z,55.4875
2023-05-04T19:18:41.490Z,55.1137
2023-05-04T19:19:42.287Z,54.4325
2023-05-04T19:20:42.633Z,54.2513
2023-05-04T19:21:43.319Z,54.2155
2023-05-04T19:22:43.864Z,54.3628
2023-05-04T19:23:44.254Z,53.9239
2023-05-04T19:24:44.796Z,53.7649
2023-05-04T19:25:45.203Z,54.1731
2023-05-04T19:26:45.609Z,54.2844
2023-05-04T19:27:47.062Z,54.8882
2023-05-04T19:28:47.639Z,54.4333
2023-05-04T19:29:47.959Z,54.1473
2023-05-04T19:30:48.743Z,54.4336
2023-05-04T19:31:49.626Z,53.9340
2023-05-04T19:32:49.819Z,53.9520
2023-05-04T19:33:50.890Z,53.0412
2023-05-04T19:34:51.823Z,53.8762
2023-05-04T19:35:52.246Z,53.5902
2023-05-04T19:36:52.916Z,52.4597
2023-05-04T19:37:53.339Z,53.1490
2023-05-04T19:38:54.110Z,53.1038
2023-05-04T19:39:54.881Z,53.3191
2023-05-04T19:40:55.262Z,53.1535
2023-05-04T19:41:55.834Z,53.8410
2023-05-04T19:42:56.432Z,53.8292
2023-05-04T19:43:56.931Z,53.4078
2023-05-04T19:44:57.697Z,53.2992
2023-05-04T19:45:58.149Z,53.1708
2023-05-04T19:46:58.918Z,53.2474
2023-05-04T19:47:59.765Z,53.1831
2023-05-04T19:49:00.162Z,53.2404
2023-05-04T19:50:00.979Z,53.7915
2023-05-04T19:52:01.156Z,54.5217
2023-05-04T19:53:01.703Z,55.0231
2023-05-04T19:54:02.080Z,54.8931
2023-05-04T19:55:02.750Z,55.0443
2023-05-04T19:56:03.373Z,54.7493
2023-05-04T19:57:03.853Z,54.4272
2023-05-04T19:58:04.421Z,54.1874
2023-05-04T19:59:04.950Z,54.0914
2023-05-04T20:00:05.421Z,54.2231
2023-05-04T20:01:06.140Z,54.7765
2023-05-04T20:02:06.910Z,55.0980
2023-05-04T20:03:07.703Z,55.2574
2023-05-04T20:04:08.427Z,55.1284
2023-05-04T20:05:08.837Z,55.6273
2023-05-04T20:06:09.278Z,55.1460
2023-05-04T20:07:09.851Z,54.6075
2023-05-04T20:08:10.428Z,54.7104
2023-05-04T20:09:11.126Z,55.2317
2023-05-04T20:10:12.389Z,55.1374
2023-05-04T20:11:12.735Z,55.0212
2023-05-04T20:12:13.355Z,55.1176
2023-05-04T20:13:14.480Z,55.2647
2023-05-04T20:14:14.857Z,55.8868
2023-05-04T20:15:15.472Z,56.1941
2023-05-04T20:16:16.238Z,56.5678
2023-05-04T20:17:16.949Z,57.0723
2023-05-04T20:18:17.685Z,56.5849
2023-05-04T20:19:18.074Z,55.6103
2023-05-04T20:20:18.644Z,56.0159
2023-05-04T20:21:19.083Z,56.1599
2023-05-04T20:22:19.470Z,56.7087
2023-05-04T20:23:20.141Z,57.3188
2023-05-04T20:24:20.771Z,56.7502
2023-05-04T20:25:21.156Z,57.2196
2023-05-04T20:26:22.729Z,57.0227
2023-05-04T20:27:23.185Z,57.0932
2023-05-04T20:30:23.717Z,57.1647
2023-05-04T20:31:24.808Z,57.3095
2023-05-04T20:32:25.495Z,57.2556
2023-05-04T20:33:25.478Z,57.1671
2023-05-04T20:34:26.583Z,57.0983
2023-05-04T20:37:36.853Z,57.4992
2023-05-04T20:38:37.944Z,57.5736
2023-05-04T20:41:04.770Z,57.8076
2023-05-04T20:42:05.443Z,57.8868
2023-05-04T20:43:05.874Z,58.3055
2023-05-04T20:44:06.400Z,58.5933
2023-05-04T20:45:07.167Z,59.0085
2023-05-04T20:46:07.765Z,59.0547
2023-05-04T20:47:08.713Z,58.7265
2023-05-04T20:48:09.732Z,58.7873
2023-05-04T20:49:10.317Z,59.1655
2023-05-04T20:51:14.650Z,59.0055
2023-05-04T20:52:12.116Z,59.2988
2023-05-04T20:53:12.673Z,59.7461
2023-05-04T20:54:13.331Z,59.8052
2023-05-04T20:55:14.864Z,60.1461
2023-05-04T20:56:16.128Z,60.1660
2023-05-04T20:58:16.397Z,60.7780
2023-05-04T20:59:17.037Z,61.3401
2023-05-04T21:00:17.631Z,62.1023
2023-05-04T21:01:18.888Z,61.9407
2023-05-04T21:04:18.753Z,62.9149
2023-05-04T21:05:19.286Z,63.7420
2023-05-04T21:06:19.879Z,63.8506
2023-05-04T21:07:20.412Z,64.2914
2023-05-04T21:08:20.922Z,64.3605
2023-05-04T21:09:21.382Z,63.8727
2023-05-04T21:10:22.088Z,63.4012
2023-05-04T21:11:22.825Z,64.4270
2023-05-04T21:12:23.354Z,63.4406
2023-05-04T21:13:24.259Z,63.7830
2023-05-04T21:14:24.726Z,64.4879
2023-05-04T21:15:25.303Z,66.4317
2023-05-04T21:16:26.228Z,67.1232
2023-05-04T21:17:26.643Z,66.6281
2023-05-04T21:18:27.331Z,67.1939
2023-05-04T21:19:28.153Z,68.5572
2023-05-04T21:20:29.161Z,68.6075
2023-05-04T21:21:29.954Z,68.7549
2023-05-04T21:22:30.662Z,68.9198
2023-05-04T21:23:31.287Z,68.9424
2023-05-04T21:24:32.288Z,68.6573
2023-05-04T21:25:32.889Z,68.6307
2023-05-04T21:26:33.558Z,69.1937
2023-05-04T21:27:34.204Z,69.4655
2023-05-04T21:28:34.261Z,69.8073
2023-05-04T21:29:34.977Z,70.4663
2023-05-04T21:30:35.712Z,70.4100
2023-05-04T21:31:36.397Z,70.5807
2023-05-04T21:32:37.639Z,70.6196
2023-05-04T21:33:38.694Z,70.4367
2023-05-04T21:34:39.322Z,70.0887
2023-05-04T21:35:40.037Z,70.3656
2023-05-04T21:36:40.620Z,70.2002
2023-05-04T21:37:41.239Z,69.9545
2023-05-04T21:38:43.078Z,69.7096
2023-05-04T21:39:43.356Z,70.0985
2023-05-04T21:40:43.526Z,70.4543
2023-05-04T21:41:44.099Z,70.4996
2023-05-04T21:42:44.778Z,70.5586
2023-05-04T21:43:45.546Z,70.0945
2023-05-04T21:44:46.033Z,70.0511
2023-05-04T21:45:47.316Z,70.3812
2023-05-04T21:46:48.464Z,70.6144
2023-05-04T21:48:59.584Z,70.2491
2023-05-04T21:50:00.429Z,70.3718
2023-05-04T21:51:00.916Z,70.4187
2023-05-04T21:52:01.639Z,70.2969
2023-05-04T21:53:02.369Z,70.4783
2023-05-04T21:54:03.719Z,71.4799
2023-05-04T21:55:03.171Z,71.3393
2023-05-04T21:56:03.686Z,71.5088
2023-05-04T21:57:04.361Z,72.1997
2023-05-04T21:58:05.135Z,72.5313
2023-05-04T21:59:06.812Z,72.7757
2023-05-04T22:01:06.446Z,72.4829
2023-05-04T22:02:07.644Z,72.7593
2023-05-04T22:03:08.526Z,72.7413
2023-05-04T22:04:09.276Z,72.7335
2023-05-04T22:05:10.113Z,72.4141
2023-05-04T22:06:10.850Z,72.5150
2023-05-04T22:07:11.614Z,72.5024
2023-05-04T22:08:12.587Z,72.9898
2023-05-04T22:09:13.109Z,72.8226
2023-05-04T22:10:14.255Z,71.6565
2023-05-04T22:11:15.204Z,71.5696
2023-05-04T22:12:15.631Z,71.2753
2023-05-04T22:13:16.428Z,70.6365
2023-05-04T22:14:17.083Z,70.5541
2023-05-04T22:15:17.559Z,70.1401
2023-05-04T22:16:18.482Z,70.3250
2023-05-04T22:17:19.597Z,70.3234
2023-05-04T22:18:20.572Z,70.4545
2023-05-04T22:19:21.328Z,71.0601
2023-05-04T22:20:22.263Z,70.3653
2023-05-04T22:21:22.852Z,70.2748
2023-05-04T22:22:23.547Z,70.7946
2023-05-04T22:23:24.174Z,70.8418
2023-05-04T22:24:24.856Z,71.0641
2023-05-04T22:25:25.230Z,71.1879
2023-05-04T22:26:26.010Z,70.9366
2023-05-04T22:27:27.235Z,70.7006
2023-05-04T22:28:27.984Z,70.9922
2023-05-04T22:29:28.436Z,71.3965
2023-05-04T22:30:29.147Z,70.8047
2023-05-04T22:31:30.019Z,70.2613
2023-05-04T22:32:30.972Z,70.1337
2023-05-04T22:33:31.967Z,69.6891
2023-05-04T22:34:32.569Z,69.4090
2023-05-04T22:35:33.345Z,68.9144
2023-05-04T22:36:34.556Z,67.9656
2023-05-04T22:37:35.786Z,67.6789
2023-05-04T22:38:36.600Z,67.7810
2023-05-04T22:39:37.095Z,68.0191
2023-05-04T22:40:39.288Z,67.8039
2023-05-04T22:41:38.583Z,67.6242
2023-05-04T22:42:39.217Z,67.2770
2023-05-04T22:43:39.938Z,67.1313
2023-05-04T22:44:41.308Z,66.5647
2023-05-04T22:45:40.551Z,66.6972
2023-05-04T22:47:24.167Z,67.3605
2023-05-04T22:48:24.449Z,66.8432
2023-05-04T22:49:26.017Z,67.4922
2023-05-04T22:51:25.681Z,67.3556
2023-05-04T22:52:27.543Z,67.5134
2023-05-04T22:54:27.150Z,66.9606
2023-05-04T22:55:27.713Z,67.5902
2023-05-04T22:56:28.114Z,67.1221
2023-05-04T22:57:28.899Z,66.6981
2023-05-04T22:58:29.590Z,66.4227
2023-05-04T22:59:29.860Z,66.1787
2023-05-04T23:00:30.694Z,66.4383
2023-05-04T23:01:31.699Z,65.5320
2023-05-04T23:02:31.685Z,65.0509
2023-05-04T23:03:32.097Z,64.5766
2023-05-04T23:04:33.065Z,63.5087
2023-05-04T23:05:33.684Z,63.4745
2023-05-04T23:06:34.332Z,64.3867
2023-05-04T23:07:34.816Z,65.3501
2023-05-04T23:08:35.666Z,65.7501
2023-05-04T23:09:36.090Z,66.1867
2023-05-04T23:10:37.426Z,67.1789
2023-05-04T23:11:38.119Z,68.1494
2023-05-04T23:12:38.782Z,68.2124
2023-05-04T23:13:39.664Z,68.3105
2023-05-04T23:14:40.408Z,69.3200
2023-05-04T23:15:40.870Z,69.3356
2023-05-04T23:16:41.732Z,69.9249
2023-05-04T23:17:42.554Z,68.7171
2023-05-04T23:18:43.236Z,69.0821
2023-05-04T23:19:43.825Z,69.8045
2023-05-04T23:20:44.276Z,69.4997
2023-05-04T23:21:44.919Z,70.0058
2023-05-04T23:22:45.547Z,69.6444
2023-05-04T23:23:46.007Z,69.1919
2023-05-04T23:24:46.777Z,69.0383
2023-05-04T23:25:47.477Z,68.7760
2023-05-04T23:26:47.987Z,68.6880
2023-05-04T23:27:48.741Z,68.4060
2023-05-04T23:28:49.150Z,68.5486
2023-05-04T23:29:49.829Z,68.7107
2023-05-04T23:30:50.425Z,68.7383
2023-05-04T23:31:51.253Z,68.4161
2023-05-04T23:32:52.216Z,67.8751
2023-05-04T23:33:53.135Z,68.1666
2023-05-04T23:34:53.760Z,67.6276
2023-05-04T23:35:54.536Z,67.1476
2023-05-04T23:36:55.129Z,66.9134
2023-05-04T23:37:55.896Z,66.9951
2023-05-04T23:38:56.914Z,66.9971
2023-05-04T23:39:57.449Z,66.6042
2023-05-04T23:40:58.626Z,66.6825
2023-05-04T23:41:59.303Z,66.6758